Time;durP1;ratioP1;P1;durP2;ratioP2;P2;SDS_P1;SDS_P2;PMS_P1;PMS_P2;Temp;Humidity;BMP_temperature;BMP_pressure;BME280_temperature;BME280_humidity;BME280_pressure;Samples;Min_cycle;Max_cycle;Signal;HPM_P1;HPM_P2
2022/01/29 00:01:09;;;;;;;28.93;15.57;;;6.00;99.90;;;;;;5008869;28;20199;-75
2022/01/29 00:03:36;;;;;;;27.50;15.03;;;6.00;99.90;;;;;;5009145;28;20233;-75
2022/01/29 00:06:04;;;;;;;28.67;14.63;;;6.00;99.90;;;;;;5006941;28;20208;-75
2022/01/29 00:08:33;;;;;;;24.20;15.57;;;5.90;99.90;;;;;;5016655;28;20706;-75
2022/01/29 00:11:07;;;;;;;26.33;16.87;;;6.00;99.90;;;;;;5004108;28;20199;-75
2022/01/29 00:13:35;;;;;;;27.33;16.30;;;6.00;99.90;;;;;;5007701;28;20198;-75
2022/01/29 00:16:03;;;;;;;24.07;15.40;;;6.00;99.90;;;;;;5006709;28;20193;-75
2022/01/29 00:18:30;;;;;;;30.37;15.13;;;6.00;99.90;;;;;;5029197;28;20216;-75
2022/01/29 00:20:58;;;;;;;27.07;15.63;;;6.00;99.90;;;;;;5009981;28;20192;-75
2022/01/29 00:23:25;;;;;;;25.80;17.03;;;6.10;99.90;;;;;;5008722;28;20229;-75
2022/01/29 00:25:54;;;;;;;26.50;16.37;;;6.10;99.90;;;;;;5013627;28;20197;-75
2022/01/29 00:28:21;;;;;;;27.13;16.07;;;6.00;99.90;;;;;;5025442;28;20224;-75
2022/01/29 00:30:49;;;;;;;29.33;17.53;;;6.00;99.90;;;;;;5003317;28;20678;-75
2022/01/29 00:33:16;;;;;;;32.33;16.23;;;6.00;99.90;;;;;;5006598;28;20188;-75
2022/01/29 00:35:44;;;;;;;27.73;18.13;;;6.10;99.90;;;;;;5004562;28;20205;-75
2022/01/29 00:38:11;;;;;;;29.23;18.80;;;6.10;99.90;;;;;;5011318;28;20201;-75
2022/01/29 00:40:39;;;;;;;25.63;16.77;;;6.10;99.90;;;;;;5008817;28;20228;-75
2022/01/29 00:43:07;;;;;;;27.07;17.87;;;6.10;99.90;;;;;;5007417;28;20217;-75
2022/01/29 00:46:27;;;;;;;30.33;20.20;;;6.10;99.90;;;;;;5027168;28;20555;-75
2022/01/29 00:48:54;;;;;;;30.57;18.80;;;6.00;99.90;;;;;;5006954;28;20231;-75
2022/01/29 00:51:22;;;;;;;31.33;19.43;;;6.00;99.90;;;;;;5017862;28;20204;-75
2022/01/29 00:53:49;;;;;;;31.40;19.63;;;6.00;99.90;;;;;;5008364;28;20578;-75
2022/01/29 00:56:16;;;;;;;30.70;20.13;;;6.10;99.90;;;;;;5009151;28;20201;-75
2022/01/29 00:59:00;;;;;;;33.07;20.67;;;6.00;99.90;;;;;;5005837;28;20209;-75
2022/01/29 01:01:27;;;;;;;31.43;20.93;;;6.00;99.90;;;;;;5005664;28;20193;-75
2022/01/29 01:03:55;;;;;;;37.37;21.43;;;6.00;99.90;;;;;;5010605;28;20216;-75
2022/01/29 01:06:22;;;;;;;31.83;21.23;;;6.10;99.90;;;;;;5012267;28;20210;-75
2022/01/29 01:08:49;;;;;;;32.33;21.67;;;6.00;99.90;;;;;;5011371;28;20561;-75
2022/01/29 01:11:17;;;;;;;31.93;19.63;;;6.10;99.90;;;;;;5003572;28;20654;-75
2022/01/29 01:13:44;;;;;;;37.07;20.23;;;6.10;99.90;;;;;;5013413;28;20188;-75
2022/01/29 01:16:13;;;;;;;39.17;21.13;;;6.10;99.90;;;;;;5021047;28;20680;-75
2022/01/29 01:18:40;;;;;;;31.67;20.57;;;6.10;99.90;;;;;;5025862;28;20258;-75
2022/01/29 01:21:07;;;;;;;37.37;21.97;;;6.00;99.90;;;;;;4995679;28;20204;-75
2022/01/29 01:23:35;;;;;;;35.17;21.20;;;6.10;99.90;;;;;;5013146;28;20217;-75
2022/01/29 01:26:04;;;;;;;34.67;19.40;;;6.10;99.90;;;;;;5011431;28;20209;-75
2022/01/29 01:28:31;;;;;;;32.03;18.50;;;6.10;99.90;;;;;;5012237;28;20232;-75
2022/01/29 01:30:58;;;;;;;38.27;22.27;;;6.10;99.90;;;;;;5002677;28;20197;-75
2022/01/29 01:34:05;;;;;;;37.00;21.47;;;6.10;99.90;;;;;;5001778;28;20201;-75
2022/01/29 01:36:40;;;;;;;37.20;21.63;;;6.10;99.90;;;;;;5001640;28;20665;-75
2022/01/29 01:39:10;;;;;;;36.90;22.47;;;6.10;99.90;;;;;;5001741;28;20232;-75
2022/01/29 01:42:12;;;;;;;33.00;21.10;;;6.10;99.90;;;;;;5024608;28;20212;-75
2022/01/29 01:44:43;;;;;;;35.67;21.20;;;6.10;99.90;;;;;;5010354;28;20225;-75
2022/01/29 01:47:11;;;;;;;43.70;24.70;;;6.10;99.90;;;;;;5010986;28;20561;-75
2022/01/29 01:49:39;;;;;;;37.57;22.00;;;6.10;99.90;;;;;;5011964;28;20225;-74
2022/01/29 01:52:10;;;;;;;38.77;21.47;;;6.10;99.90;;;;;;5012345;28;20203;-75
2022/01/29 01:54:39;;;;;;;36.87;22.60;;;6.10;99.90;;;;;;5025077;28;20239;-75
2022/01/29 01:57:06;;;;;;;38.63;22.77;;;6.10;99.90;;;;;;5016757;28;20205;-75
2022/01/29 01:59:35;;;;;;;35.00;21.97;;;6.10;99.90;;;;;;5007910;28;20696;-75
2022/01/29 02:02:03;;;;;;;34.63;22.57;;;6.20;99.90;;;;;;5013202;28;20203;-75
2022/01/29 02:04:33;;;;;;;40.40;22.57;;;6.20;99.90;;;;;;5004740;28;20225;-75
2022/01/29 02:07:01;;;;;;;34.20;22.53;;;6.20;99.90;;;;;;5017202;28;20208;-75
2022/01/29 02:09:32;;;;;;;39.53;24.37;;;6.20;99.90;;;;;;4997900;28;20217;-75
2022/01/29 02:12:01;;;;;;;38.27;23.57;;;6.20;99.90;;;;;;5008361;28;20200;-75
2022/01/29 02:14:31;;;;;;;38.87;23.60;;;6.10;99.90;;;;;;5003964;28;20198;-75
2022/01/29 02:16:59;;;;;;;52.60;23.10;;;6.20;99.90;;;;;;5000925;28;20196;-75
2022/01/29 02:19:27;;;;;;;37.57;22.47;;;6.20;99.90;;;;;;4995829;28;20698;-75
2022/01/29 02:21:56;;;;;;;38.87;22.37;;;6.10;99.90;;;;;;5018211;28;20225;-75
2022/01/29 02:24:24;;;;;;;38.67;23.77;;;6.10;99.90;;;;;;5020055;28;20233;-75
2022/01/29 02:26:51;;;;;;;38.80;23.10;;;6.10;99.90;;;;;;5010521;28;20193;-75
2022/01/29 02:29:20;;;;;;;35.53;21.50;;;6.10;99.90;;;;;;5008929;28;20246;-75
2022/01/29 02:31:49;;;;;;;36.50;23.13;;;6.10;99.90;;;;;;5013412;28;20212;-75
2022/01/29 02:34:17;;;;;;;37.93;23.83;;;6.10;99.90;;;;;;5015745;28;20554;-75
2022/01/29 02:36:45;;;;;;;39.20;23.47;;;6.10;99.90;;;;;;5011671;28;20200;-75
2022/01/29 02:39:16;;;;;;;40.00;22.83;;;6.10;99.90;;;;;;5026682;28;20232;-75
2022/01/29 02:41:44;;;;;;;36.73;22.13;;;6.10;99.90;;;;;;5009652;28;20201;-75
2022/01/29 02:44:15;;;;;;;40.10;23.23;;;6.10;99.90;;;;;;5004964;28;20624;-75
2022/01/29 02:46:49;;;;;;;43.00;24.07;;;6.10;99.90;;;;;;5010635;28;20193;-75
2022/01/29 02:49:18;;;;;;;42.47;23.83;;;6.10;99.90;;;;;;5010978;28;20213;-75
2022/01/29 02:51:47;;;;;;;45.43;24.10;;;6.10;99.90;;;;;;5019423;28;20207;-75
2022/01/29 02:54:17;;;;;;;43.20;26.87;;;6.10;99.90;;;;;;5027182;28;20197;-75
2022/01/29 02:56:44;;;;;;;44.63;25.17;;;6.10;99.90;;;;;;5012691;28;20201;-75
2022/01/29 02:59:12;;;;;;;42.33;24.00;;;6.00;99.90;;;;;;5012287;28;20216;-75
2022/01/29 03:01:39;;;;;;;37.70;23.37;;;6.00;99.90;;;;;;5012177;28;20210;-75
2022/01/29 03:04:07;;;;;;;38.70;23.93;;;6.00;99.90;;;;;;5011969;28;20206;-75
2022/01/29 03:06:35;;;;;;;40.83;23.97;;;6.00;99.90;;;;;;5003183;28;20210;-75
2022/01/29 03:09:04;;;;;;;36.77;20.53;;;6.00;99.90;;;;;;5012741;28;20231;-75
2022/01/29 03:11:33;;;;;;;42.53;24.17;;;6.00;99.90;;;;;;5008064;28;20217;-75
2022/01/29 03:14:00;;;;;;;44.23;23.30;;;6.00;99.90;;;;;;5014008;28;20198;-75
2022/01/29 03:16:27;;;;;;;43.07;24.43;;;6.00;99.90;;;;;;5015594;28;20193;-75
2022/01/29 03:18:55;;;;;;;38.87;25.03;;;6.00;99.90;;;;;;5010593;28;20217;-75
2022/01/29 03:21:22;;;;;;;43.07;23.13;;;6.10;99.90;;;;;;5007216;28;20208;-75
2022/01/29 03:23:49;;;;;;;44.67;24.00;;;6.00;99.90;;;;;;5006116;28;20202;-75
2022/01/29 03:26:17;;;;;;;41.43;23.73;;;6.00;99.90;;;;;;5016964;28;20224;-75
2022/01/29 03:28:45;;;;;;;41.30;24.37;;;6.00;99.90;;;;;;5023390;28;20222;-75
2022/01/29 03:31:13;;;;;;;44.57;25.60;;;6.00;99.90;;;;;;5008194;28;20655;-75
2022/01/29 03:33:40;;;;;;;36.57;22.53;;;6.10;99.90;;;;;;5003045;28;20207;-75
2022/01/29 03:36:08;;;;;;;41.03;23.87;;;6.00;99.90;;;;;;5019901;28;20205;-75
2022/01/29 03:38:39;;;;;;;41.40;23.97;;;6.10;99.90;;;;;;5013254;28;20232;-75
2022/01/29 03:41:07;;;;;;;42.50;23.13;;;6.10;99.90;;;;;;5005662;28;20227;-75
2022/01/29 03:43:42;;;;;;;39.93;22.97;;;6.10;99.90;;;;;;5013725;28;20658;-75
2022/01/29 03:46:11;;;;;;;41.83;24.50;;;6.10;99.90;;;;;;5016515;28;20219;-75
2022/01/29 03:48:38;;;;;;;40.53;23.70;;;6.20;99.90;;;;;;5011987;28;20682;-75
2022/01/29 03:51:05;;;;;;;38.57;23.40;;;6.20;99.90;;;;;;5004255;28;20664;-75
2022/01/29 03:53:33;;;;;;;44.07;24.60;;;6.10;99.90;;;;;;5011643;28;20207;-75
2022/01/29 03:56:00;;;;;;;43.50;23.33;;;6.10;99.90;;;;;;5008554;28;20193;-75
2022/01/29 03:58:28;;;;;;;41.60;23.33;;;6.10;99.90;;;;;;5011757;28;20206;-75
2022/01/29 04:00:55;;;;;;;39.40;25.10;;;6.10;99.90;;;;;;5014036;28;20197;-75
2022/01/29 04:03:24;;;;;;;44.10;25.27;;;6.10;99.90;;;;;;5009130;28;20204;-75
2022/01/29 04:05:51;;;;;;;36.63;22.97;;;6.10;99.90;;;;;;4995159;28;20210;-75
2022/01/29 04:08:19;;;;;;;40.40;24.27;;;6.20;99.90;;;;;;5031774;28;20206;-75
2022/01/29 04:10:47;;;;;;;38.13;23.90;;;6.20;99.90;;;;;;5007018;28;20206;-75
2022/01/29 04:13:15;;;;;;;40.37;22.67;;;6.10;99.90;;;;;;5007411;28;20679;-75
2022/01/29 04:15:43;;;;;;;43.63;23.67;;;6.10;99.90;;;;;;5005521;28;20219;-75
2022/01/29 04:18:10;;;;;;;43.17;24.37;;;6.10;99.90;;;;;;5021489;28;20206;-75
2022/01/29 04:20:39;;;;;;;43.17;24.60;;;6.00;99.90;;;;;;5003665;28;20217;-75
2022/01/29 04:23:07;;;;;;;40.57;24.57;;;6.00;99.90;;;;;;5008717;28;20204;-75
2022/01/29 04:25:34;;;;;;;44.47;24.33;;;6.00;99.90;;;;;;5023093;28;20562;-75
2022/01/29 04:28:04;;;;;;;40.93;25.87;;;6.00;99.90;;;;;;5011016;28;20198;-75
2022/01/29 04:30:39;;;;;;;41.93;22.77;;;6.00;99.90;;;;;;5019127;28;20705;-75
2022/01/29 04:33:24;;;;;;;45.57;26.00;;;6.00;99.90;;;;;;5008192;28;20196;-75
2022/01/29 04:35:53;;;;;;;38.30;24.03;;;6.00;99.90;;;;;;5008869;28;20197;-75
2022/01/29 04:38:30;;;;;;;45.23;25.43;;;6.00;99.90;;;;;;5002678;28;20208;-75
2022/01/29 04:41:00;;;;;;;44.70;25.07;;;6.00;99.90;;;;;;5001191;28;20234;-75
2022/01/29 04:43:28;;;;;;;41.30;25.53;;;6.00;99.90;;;;;;5005009;28;20194;-75
2022/01/29 04:45:55;;;;;;;45.20;25.10;;;6.00;99.90;;;;;;5014053;28;20219;-75
2022/01/29 04:48:22;;;;;;;40.57;22.37;;;6.00;99.90;;;;;;5007711;28;20690;-74
2022/01/29 04:50:50;;;;;;;38.80;23.47;;;6.00;99.90;;;;;;5006784;28;20204;-75
2022/01/29 04:53:18;;;;;;;42.00;23.53;;;6.10;99.90;;;;;;5008107;28;20207;-75
2022/01/29 04:56:31;;;;;;;42.30;24.70;;;6.00;99.90;;;;;;5009173;28;20286;-75
2022/01/29 04:58:59;;;;;;;43.17;24.27;;;6.00;99.90;;;;;;5012060;28;20339;-75
2022/01/29 05:01:26;;;;;;;44.73;23.83;;;6.00;99.90;;;;;;5000554;28;20208;-75
2022/01/29 05:03:53;;;;;;;39.60;23.03;;;6.10;99.90;;;;;;5009899;28;20218;-75
2022/01/29 05:06:21;;;;;;;40.97;24.47;;;6.00;99.90;;;;;;5008608;28;20680;-75
2022/01/29 05:08:49;;;;;;;39.90;23.87;;;6.00;99.90;;;;;;5015639;28;20235;-75
2022/01/29 05:11:36;;;;;;;40.63;23.60;;;6.10;99.90;;;;;;5002768;28;20197;-75
2022/01/29 05:14:06;;;;;;;42.83;23.70;;;6.10;99.90;;;;;;5021288;28;20220;-75
2022/01/29 05:16:53;;;;;;;41.27;22.53;;;6.10;99.90;;;;;;5021115;28;20192;-75
2022/01/29 05:27:36;;;;;;;38.80;21.63;;;6.10;99.90;;;;;;5011576;28;20201;-75
2022/01/29 05:30:07;;;;;;;39.20;22.60;;;6.10;99.90;;;;;;5020317;28;20216;-75
2022/01/29 05:32:35;;;;;;;31.17;19.40;;;6.20;99.90;;;;;;5008918;28;20211;-75
2022/01/29 05:35:02;;;;;;;38.13;20.63;;;6.20;99.90;;;;;;5024530;28;20219;-75
2022/01/29 05:37:30;;;;;;;32.73;18.00;;;6.20;99.90;;;;;;5012397;28;20200;-75
2022/01/29 05:39:58;;;;;;;34.80;20.50;;;6.20;99.90;;;;;;5006455;28;20704;-75
2022/01/29 05:42:26;;;;;;;31.53;21.10;;;6.20;99.90;;;;;;4999988;28;20686;-75
2022/01/29 05:44:53;;;;;;;34.20;21.20;;;6.20;99.90;;;;;;5012365;28;20188;-75
2022/01/29 05:47:20;;;;;;;34.70;20.17;;;6.20;99.90;;;;;;5004410;28;20218;-75
2022/01/29 05:49:48;;;;;;;35.67;20.83;;;6.30;99.90;;;;;;5006397;28;20683;-75
2022/01/29 05:52:15;;;;;;;38.50;22.20;;;6.30;99.90;;;;;;5004965;28;20203;-75
2022/01/29 05:54:42;;;;;;;35.93;21.97;;;6.30;99.90;;;;;;5029364;28;20229;-75
2022/01/29 05:57:11;;;;;;;34.40;21.13;;;6.40;99.90;;;;;;5011207;28;20196;-75
2022/01/29 05:59:38;;;;;;;37.87;22.37;;;6.40;99.90;;;;;;5007465;28;20720;-75
2022/01/29 06:02:06;;;;;;;36.23;21.20;;;6.40;99.90;;;;;;5011857;28;20205;-75
2022/01/29 06:04:33;;;;;;;39.17;22.37;;;6.40;99.90;;;;;;5007890;28;20206;-75
2022/01/29 06:07:00;;;;;;;36.67;21.67;;;6.40;99.90;;;;;;5003876;28;20225;-75
2022/01/29 06:09:28;;;;;;;36.57;21.57;;;6.40;99.90;;;;;;5017648;28;20216;-75
2022/01/29 06:11:55;;;;;;;35.60;19.60;;;6.40;99.90;;;;;;5007126;28;20202;-75
2022/01/29 06:14:24;;;;;;;32.40;19.40;;;6.40;99.90;;;;;;5011249;28;20212;-74
2022/01/29 06:16:52;;;;;;;31.00;19.50;;;6.40;99.90;;;;;;5010725;28;20193;-75
2022/01/29 06:19:19;;;;;;;36.03;21.37;;;6.50;99.90;;;;;;5008795;28;20226;-75
2022/01/29 06:21:46;;;;;;;34.07;19.90;;;6.50;99.90;;;;;;5020033;28;20208;-75
2022/01/29 06:24:14;;;;;;;38.53;21.90;;;6.50;99.90;;;;;;5020893;28;20194;-75
2022/01/29 06:26:41;;;;;;;34.07;21.57;;;6.50;99.90;;;;;;5009496;28;20224;-75
2022/01/29 06:29:09;;;;;;;31.67;20.27;;;6.60;99.90;;;;;;5004281;28;20563;-75
2022/01/29 06:31:37;;;;;;;33.33;21.50;;;6.60;99.90;;;;;;5000884;28;20194;-75
2022/01/29 06:34:05;;;;;;;33.50;20.80;;;6.60;99.90;;;;;;5015425;28;20208;-75
2022/01/29 06:36:32;;;;;;;36.87;21.00;;;6.60;99.90;;;;;;5011718;28;20190;-75
2022/01/29 06:38:59;;;;;;;39.00;20.23;;;6.60;99.90;;;;;;5009475;28;20730;-75
2022/01/29 06:41:27;;;;;;;36.30;22.03;;;6.60;99.90;;;;;;5007478;28;20694;-75
2022/01/29 06:43:54;;;;;;;37.40;21.00;;;6.60;99.90;;;;;;5014249;28;20189;-75
2022/01/29 06:46:21;;;;;;;35.27;21.20;;;6.60;99.90;;;;;;5022415;28;20215;-75
2022/01/29 06:48:50;;;;;;;38.03;22.00;;;6.70;99.90;;;;;;5015462;28;20228;-74
2022/01/29 06:51:18;;;;;;;34.70;19.33;;;6.60;99.90;;;;;;4992798;28;20190;-75
2022/01/29 06:53:45;;;;;;;35.30;22.00;;;6.70;99.90;;;;;;5008943;28;20202;-76
2022/01/29 06:56:22;;;;;;;32.20;21.77;;;6.60;99.90;;;;;;5000931;28;20205;-77
2022/01/29 06:58:53;;;;;;;36.57;21.70;;;6.70;99.90;;;;;;5020840;28;20228;-75
2022/01/29 07:01:20;;;;;;;34.10;22.40;;;6.70;99.90;;;;;;5002623;28;20201;-75
2022/01/29 07:03:50;;;;;;;33.77;20.20;;;6.80;99.90;;;;;;4999862;28;20224;-75
2022/01/29 07:06:17;;;;;;;36.03;22.27;;;6.70;99.90;;;;;;5015135;28;20230;-74
2022/01/29 07:08:45;;;;;;;33.13;21.20;;;6.70;99.90;;;;;;5023727;28;20217;-74
2022/01/29 07:11:41;;;;;;;34.40;20.77;;;6.80;99.90;;;;;;4999385;28;20214;-74
2022/01/29 07:14:08;;;;;;;35.37;20.13;;;6.80;99.90;;;;;;5003083;28;20221;-74
2022/01/29 07:16:37;;;;;;;38.43;22.57;;;6.80;99.90;;;;;;5010676;28;20204;-74
2022/01/29 07:19:05;;;;;;;34.13;21.03;;;6.80;99.90;;;;;;5008670;28;20736;-74
2022/01/29 07:21:33;;;;;;;38.77;23.10;;;6.80;99.90;;;;;;5011622;28;20242;-74
2022/01/29 07:24:01;;;;;;;39.43;22.17;;;6.80;99.90;;;;;;4995215;28;20213;-74
2022/01/29 07:26:33;;;;;;;35.57;22.17;;;6.80;99.90;;;;;;5014969;28;20228;-74
2022/01/29 07:29:09;;;;;;;35.17;20.17;;;6.90;99.90;;;;;;5015819;28;20221;-74
2022/01/29 07:31:53;;;;;;;36.87;23.33;;;6.90;99.90;;;;;;5000732;28;20215;-73
2022/01/29 07:34:21;;;;;;;35.87;22.83;;;6.90;99.90;;;;;;5020626;28;20201;-74
2022/01/29 07:36:49;;;;;;;38.77;24.63;;;7.00;99.90;;;;;;5019221;28;20206;-74
2022/01/29 07:40:01;;;;;;;39.37;25.13;;;7.00;99.90;;;;;;5009933;28;20241;-74
2022/01/29 07:42:28;;;;;;;41.97;25.47;;;7.00;99.90;;;;;;5025082;28;20211;-74
2022/01/29 07:44:56;;;;;;;40.63;25.77;;;7.00;99.90;;;;;;5011277;28;20205;-74
2022/01/29 07:47:34;;;;;;;43.47;25.80;;;7.00;99.90;;;;;;5010773;28;20677;-74
2022/01/29 07:50:03;;;;;;;41.43;24.67;;;7.00;99.90;;;;;;5003738;28;20232;-74
2022/01/29 07:52:39;;;;;;;50.57;27.93;;;7.00;99.90;;;;;;5011906;28;20683;-74
2022/01/29 07:55:08;;;;;;;46.20;27.00;;;7.00;99.90;;;;;;5019022;28;20205;-75
2022/01/29 07:57:44;;;;;;;46.23;27.67;;;7.10;99.90;;;;;;5031266;28;20208;-74
2022/01/29 08:00:12;;;;;;;42.93;25.83;;;7.10;99.90;;;;;;5008654;28;20228;-74
2022/01/29 08:03:01;;;;;;;43.47;27.17;;;7.10;99.90;;;;;;5020172;28;20218;-75
2022/01/29 08:05:30;;;;;;;45.10;26.50;;;7.10;99.90;;;;;;5016511;28;20201;-75
2022/01/29 08:07:57;;;;;;;51.13;27.80;;;7.10;99.90;;;;;;5011198;28;20664;-74
2022/01/29 08:10:33;;;;;;;44.77;26.43;;;7.10;99.90;;;;;;5006806;28;20211;-75
2022/01/29 08:13:01;;;;;;;49.23;28.13;;;7.10;99.90;;;;;;5017409;28;20209;-74
2022/01/29 08:15:31;;;;;;;48.73;28.43;;;7.10;99.90;;;;;;5002293;28;20211;-76
2022/01/29 08:17:58;;;;;;;50.23;29.40;;;7.20;99.90;;;;;;5013503;28;20178;-75
2022/01/29 08:20:26;;;;;;;45.47;26.37;;;7.20;99.90;;;;;;5012476;28;20222;-75
2022/01/29 08:22:54;;;;;;;52.40;28.10;;;7.20;99.90;;;;;;5002469;28;20202;-75
2022/01/29 08:25:22;;;;;;;45.67;26.97;;;7.20;99.90;;;;;;5002594;28;20198;-76
2022/01/29 08:27:54;;;;;;;46.63;26.33;;;7.20;99.90;;;;;;5007821;28;20218;-76
2022/01/29 08:30:22;;;;;;;45.97;26.60;;;7.30;99.90;;;;;;5007112;28;20222;-75
2022/01/29 08:33:00;;;;;;;43.57;27.47;;;7.40;99.90;;;;;;5002729;28;20203;-76
2022/01/29 08:35:27;;;;;;;47.77;27.50;;;7.30;99.90;;;;;;5005046;28;20881;-75
2022/01/29 08:37:57;;;;;;;45.43;27.10;;;7.40;99.90;;;;;;5011146;28;20202;-75
2022/01/29 08:40:25;;;;;;;45.10;26.50;;;7.40;99.90;;;;;;5005816;28;20230;-74
2022/01/29 08:42:52;;;;;;;41.57;25.60;;;7.50;99.90;;;;;;5006692;28;20206;-75
2022/01/29 08:45:20;;;;;;;39.77;25.40;;;7.50;99.90;;;;;;5011480;28;20202;-75
2022/01/29 08:47:47;;;;;;;41.40;26.07;;;7.50;99.90;;;;;;5009835;28;20237;-76
2022/01/29 08:50:16;;;;;;;37.77;24.03;;;7.50;99.90;;;;;;5009397;28;20218;-75
2022/01/29 08:52:44;;;;;;;38.73;26.63;;;7.60;99.90;;;;;;5008917;28;20196;-75
2022/01/29 08:55:13;;;;;;;37.53;22.93;;;7.60;99.90;;;;;;5003949;28;20202;-77
2022/01/29 08:57:41;;;;;;;31.73;21.13;;;7.60;99.90;;;;;;5023654;28;20207;-76
2022/01/29 09:00:11;;;;;;;37.30;22.57;;;7.60;99.90;;;;;;4995693;28;20239;-76
2022/01/29 09:02:39;;;;;;;32.93;22.20;;;7.60;99.90;;;;;;5012999;28;20778;-74
2022/01/29 09:05:11;;;;;;;32.00;21.53;;;7.70;99.90;;;;;;5008281;28;20230;-74
2022/01/29 09:07:39;;;;;;;34.20;20.90;;;7.70;99.90;;;;;;5009382;28;20225;-75
2022/01/29 09:10:07;;;;;;;29.40;19.70;;;7.60;99.90;;;;;;5001997;28;20251;-75
2022/01/29 09:12:42;;;;;;;29.03;19.50;;;7.60;99.90;;;;;;5000585;28;20657;-76
2022/01/29 09:15:10;;;;;;;30.10;20.40;;;7.60;99.90;;;;;;4998724;28;20200;-74
2022/01/29 09:17:39;;;;;;;29.17;18.73;;;7.60;99.90;;;;;;5024556;28;20203;-74
2022/01/29 09:20:13;;;;;;;26.20;18.13;;;7.60;99.90;;;;;;5004265;28;20226;-73
2022/01/29 09:22:44;;;;;;;28.93;19.00;;;7.60;99.90;;;;;;5003685;28;20191;-73
2022/01/29 09:25:11;;;;;;;26.57;20.23;;;7.60;99.90;;;;;;5004378;28;20203;-76
2022/01/29 09:27:39;;;;;;;27.17;19.20;;;7.60;99.90;;;;;;5005977;28;20225;-73
2022/01/29 09:30:35;;;;;;;29.27;20.10;;;7.60;99.90;;;;;;5000523;28;20222;-71
2022/01/29 09:33:07;;;;;;;29.13;19.90;;;7.60;99.90;;;;;;5006448;28;20203;-72
2022/01/29 09:35:35;;;;;;;30.33;20.03;;;7.60;99.90;;;;;;5013150;28;20206;-73
2022/01/29 09:38:02;;;;;;;28.20;19.90;;;7.60;99.90;;;;;;5008612;28;20218;-72
2022/01/29 09:40:36;;;;;;;29.37;18.93;;;7.60;99.90;;;;;;4997850;28;20243;-72
2022/01/29 09:43:06;;;;;;;28.00;19.37;;;7.70;99.90;;;;;;5023095;28;20202;-72
2022/01/29 09:45:35;;;;;;;26.43;18.17;;;7.70;99.90;;;;;;5012407;28;20196;-72
2022/01/29 09:48:03;;;;;;;30.43;20.67;;;7.70;99.90;;;;;;5012347;28;20217;-74
2022/01/29 09:50:32;;;;;;;31.37;21.73;;;7.70;99.90;;;;;;4999155;28;20224;-74
2022/01/29 09:53:01;;;;;;;29.00;20.43;;;7.80;99.90;;;;;;5010909;28;20205;-72
2022/01/29 09:55:37;;;;;;;30.07;21.03;;;7.80;99.90;;;;;;5006088;28;20209;-73
2022/01/29 09:58:23;;;;;;;29.17;19.10;;;7.80;99.90;;;;;;5011104;28;20202;-73
2022/01/29 10:00:53;;;;;;;30.40;21.27;;;7.80;99.90;;;;;;5004572;28;20199;-73
2022/01/29 10:03:22;;;;;;;29.23;20.23;;;7.90;99.90;;;;;;5010003;28;20620;-72
2022/01/29 10:06:01;;;;;;;29.17;21.17;;;7.90;99.90;;;;;;5006506;28;20697;-72
2022/01/29 10:08:42;;;;;;;30.40;20.40;;;7.90;99.90;;;;;;5007426;28;20303;-74
2022/01/29 10:11:25;;;;;;;28.60;20.83;;;7.90;99.90;;;;;;4996675;28;20273;-73
2022/01/29 10:14:12;;;;;;;32.60;21.43;;;8.00;99.90;;;;;;5023146;28;20209;-73
2022/01/29 10:16:52;;;;;;;29.73;21.43;;;8.10;99.90;;;;;;5003352;28;20632;-75
2022/01/29 10:19:19;;;;;;;28.53;20.27;;;8.00;99.90;;;;;;5016144;28;20230;-73
2022/01/29 10:21:56;;;;;;;31.17;21.60;;;8.10;99.90;;;;;;5005237;28;20203;-73
2022/01/29 10:24:30;;;;;;;31.33;22.07;;;8.10;99.90;;;;;;5010833;28;20193;-74
2022/01/29 10:26:57;;;;;;;29.43;21.83;;;8.10;99.90;;;;;;5008558;28;20211;-73
2022/01/29 10:29:27;;;;;;;29.60;22.87;;;8.10;99.90;;;;;;5005810;28;20238;-73
2022/01/29 10:32:00;;;;;;;30.43;22.03;;;8.20;99.90;;;;;;5013068;28;20215;-73
2022/01/29 10:34:30;;;;;;;32.80;23.03;;;8.20;99.90;;;;;;5008632;28;20210;-73
2022/01/29 10:37:24;;;;;;;32.37;22.07;;;8.30;99.90;;;;;;5004822;28;20206;-73
2022/01/29 10:40:18;;;;;;;33.23;23.13;;;8.30;99.90;;;;;;5013494;28;20216;-73
2022/01/29 10:42:47;;;;;;;29.73;22.07;;;8.40;99.90;;;;;;5012816;28;20211;-73
2022/01/29 10:45:14;;;;;;;31.00;21.03;;;8.40;99.90;;;;;;5007008;28;20203;-73
2022/01/29 10:48:06;;;;;;;28.83;20.80;;;8.30;99.90;;;;;;5000322;28;20202;-73
2022/01/29 10:50:36;;;;;;;28.70;20.17;;;8.40;99.90;;;;;;5012318;28;20588;-73
2022/01/29 10:53:26;;;;;;;32.17;21.80;;;8.40;99.90;;;;;;5008245;28;20521;-73
2022/01/29 10:56:01;;;;;;;28.57;20.50;;;8.40;99.90;;;;;;5014336;28;20204;-73
2022/01/29 10:58:28;;;;;;;27.80;20.63;;;8.40;99.90;;;;;;5008559;28;20654;-73
2022/01/29 11:01:12;;;;;;;25.93;19.83;;;8.40;99.90;;;;;;5017732;28;20203;-73
2022/01/29 11:03:41;;;;;;;26.07;19.97;;;8.40;99.90;;;;;;5024430;28;20210;-73
2022/01/29 11:06:13;;;;;;;29.90;19.83;;;8.40;99.90;;;;;;5006073;28;20197;-73
2022/01/29 11:08:41;;;;;;;26.70;19.93;;;8.40;99.90;;;;;;4988073;28;20744;-73
2022/01/29 11:11:24;;;;;;;24.77;17.87;;;8.40;99.90;;;;;;4988663;28;20193;-73
2022/01/29 11:13:52;;;;;;;26.77;20.27;;;8.40;99.90;;;;;;4984279;28;20205;-75
2022/01/29 11:16:19;;;;;;;26.03;19.63;;;8.40;99.90;;;;;;5004324;28;20212;-74
2022/01/29 11:18:48;;;;;;;26.47;18.43;;;8.40;99.90;;;;;;4990677;28;20220;-73
2022/01/29 11:21:30;;;;;;;26.23;20.57;;;8.40;99.90;;;;;;4993802;28;20760;-73
2022/01/29 11:23:58;;;;;;;25.03;18.10;;;8.50;99.90;;;;;;4991972;28;20205;-73
2022/01/29 11:26:36;;;;;;;24.27;19.27;;;8.50;99.90;;;;;;4993751;28;20215;-73
2022/01/29 11:29:24;;;;;;;27.03;20.00;;;8.60;99.90;;;;;;4996393;28;20224;-73
2022/01/29 11:32:25;;;;;;;28.97;20.77;;;8.70;99.90;;;;;;4990730;28;20205;-73
2022/01/29 11:35:15;;;;;;;27.17;21.13;;;8.70;99.90;;;;;;4989051;28;20188;-73
2022/01/29 11:37:57;;;;;;;26.60;20.37;;;8.70;99.90;;;;;;5008110;28;20217;-73
2022/01/29 11:40:30;;;;;;;25.00;19.40;;;8.70;99.90;;;;;;4994070;28;20568;-73
2022/01/29 11:43:24;;;;;;;25.33;19.60;;;8.80;99.90;;;;;;5008043;28;20219;-73
2022/01/29 11:45:58;;;;;;;25.87;18.87;;;8.70;99.90;;;;;;4983134;28;20663;-73
2022/01/29 11:48:54;;;;;;;25.23;19.27;;;8.70;99.90;;;;;;4992250;28;20195;-73
2022/01/29 11:51:48;;;;;;;19.77;13.33;;;8.80;99.90;;;;;;4993766;28;20658;-73
2022/01/29 11:54:20;;;;;;;24.03;17.33;;;8.80;99.90;;;;;;4987983;28;20196;-73
2022/01/29 11:56:49;;;;;;;24.47;18.10;;;8.80;99.90;;;;;;4989553;28;20213;-73
2022/01/29 11:59:30;;;;;;;24.53;18.30;;;8.80;99.90;;;;;;5009657;28;20741;-73
2022/01/29 12:02:00;;;;;;;23.20;18.73;;;8.80;99.90;;;;;;4986285;28;20192;-73
2022/01/29 12:05:04;;;;;;;23.97;19.07;;;8.90;99.90;;;;;;4991643;28;20642;-73
2022/01/29 12:07:35;;;;;;;22.40;18.33;;;9.00;99.90;;;;;;4991912;28;20215;-73
2022/01/29 12:10:08;;;;;;;21.17;18.40;;;9.00;99.90;;;;;;4993208;28;20231;-73
2022/01/29 12:12:36;;;;;;;20.37;16.67;;;9.10;99.90;;;;;;4993154;28;20564;-73
2022/01/29 12:15:37;;;;;;;22.17;16.87;;;9.10;99.90;;;;;;4991270;28;20671;-73
2022/01/29 12:18:09;;;;;;;19.30;16.10;;;9.20;99.90;;;;;;4995903;28;20192;-73
2022/01/29 12:20:36;;;;;;;19.13;13.87;;;9.20;99.90;;;;;;4990206;28;20216;-73
2022/01/29 12:23:06;;;;;;;21.00;16.17;;;9.20;99.90;;;;;;4993527;28;20193;-73
2022/01/29 12:25:33;;;;;;;20.17;14.40;;;9.20;99.90;;;;;;4992456;28;20227;-73
2022/01/29 12:28:03;;;;;;;16.57;13.63;;;9.20;99.90;;;;;;4995264;28;20555;-73
2022/01/29 12:30:32;;;;;;;17.37;13.60;;;9.20;99.90;;;;;;4993845;28;20220;-73
2022/01/29 12:33:03;;;;;;;17.80;13.23;;;9.20;99.90;;;;;;4993225;28;20659;-73
2022/01/29 12:35:35;;;;;;;15.27;12.50;;;9.20;99.90;;;;;;4990696;28;20196;-73
2022/01/29 12:38:05;;;;;;;16.40;13.60;;;9.30;99.90;;;;;;4993908;28;20196;-73
2022/01/29 12:40:38;;;;;;;14.47;12.43;;;9.40;99.90;;;;;;4989436;28;20223;-73
2022/01/29 12:43:20;;;;;;;16.30;13.13;;;9.30;99.90;;;;;;4989616;28;20207;-73
2022/01/29 12:45:48;;;;;;;14.10;12.07;;;9.40;99.90;;;;;;4987550;28;20196;-73
2022/01/29 12:48:17;;;;;;;12.30;11.00;;;9.40;99.90;;;;;;4990205;28;20211;-73
2022/01/29 12:50:46;;;;;;;12.83;10.40;;;9.40;99.90;;;;;;4987311;28;20239;-73
2022/01/29 12:53:17;;;;;;;12.67;10.93;;;9.40;99.90;;;;;;5008497;28;20212;-73
2022/01/29 12:55:44;;;;;;;13.97;11.17;;;9.50;99.90;;;;;;4991769;28;20200;-73
2022/01/29 12:58:12;;;;;;;12.67;11.37;;;9.50;99.90;;;;;;4991642;28;20200;-73
2022/01/29 13:00:40;;;;;;;12.80;10.50;;;9.50;99.90;;;;;;4992773;28;20220;-73
2022/01/29 13:03:10;;;;;;;13.73;12.33;;;9.50;99.90;;;;;;4995594;28;20200;-73
2022/01/29 13:05:41;;;;;;;11.90;10.77;;;9.50;99.90;;;;;;4996244;28;20212;-73